KLM51U EKCH-EDDH
Flight info
| Callsign | KLM51U |
|---|---|
| Flight time | 0h 31m |
| Altitude | 22000 |
| Route | NEXEN T503 MICOS N850 BOGMU BOGMU3P |
| Aircraft | B77W/H-SDE1E2E3FGHIJ2J3J4J5M1RWXY/LB1D1 |
Departure
| Time | 2026-05-04 19:12 |
|---|---|
| Airport | Copenhagen Kastrup Airport (EKCH) |
Arrival
| Time | 2026-05-04 19:43 |
|---|---|
| Airport | Hamburg Helmut Schmidt Airport (EDDH) |
| Time | Latitude | Longitude | Altitude | Speed | Heading |
|---|---|---|---|---|---|
| 2026-05-04 18:33 | 55.62607 | 12.65993 | 29 ft | 0 kts | 260° |
| 2026-05-04 18:54 | 55.62607 | 12.65994 | 29 ft | 1 kts | 260° |
| 2026-05-04 18:54 | 55.62609 | 12.66018 | 29 ft | 2 kts | 259° |
| 2026-05-04 18:55 | 55.62612 | 12.66042 | 29 ft | 2 kts | 258° |
| 2026-05-04 18:55 | 55.62619 | 12.66089 | 26 ft | 2 kts | 252° |
| 2026-05-04 18:55 | 55.62624 | 12.66111 | 26 ft | 2 kts | 243° |
| 2026-05-04 18:56 | 55.62630 | 12.66131 | 27 ft | 2 kts | 230° |
| 2026-05-04 18:56 | 55.62640 | 12.66148 | 26 ft | 2 kts | 221° |
| 2026-05-04 18:56 | 55.62650 | 12.66164 | 27 ft | 2 kts | 221° |
| 2026-05-04 18:56 | 55.62661 | 12.66180 | 26 ft | 2 kts | 221° |
| 2026-05-04 18:57 | 55.62669 | 12.66194 | 27 ft | 1 kts | 221° |
| 2026-05-04 18:57 | 55.62674 | 12.66201 | 27 ft | 1 kts | 221° |
| 2026-05-04 18:57 | 55.62679 | 12.66208 | 27 ft | 1 kts | 221° |
| 2026-05-04 18:57 | 55.62682 | 12.66213 | 27 ft | 0 kts | 221° |
| 2026-05-04 19:00 | 55.62679 | 12.66208 | 27 ft | 2 kts | 221° |
| 2026-05-04 19:01 | 55.62655 | 12.66171 | 26 ft | 6 kts | 219° |
| 2026-05-04 19:01 | 55.62615 | 12.66140 | 29 ft | 7 kts | 190° |
| 2026-05-04 19:01 | 55.62564 | 12.66140 | 29 ft | 8 kts | 173° |
| 2026-05-04 19:01 | 55.62515 | 12.66184 | 29 ft | 8 kts | 135° |
| 2026-05-04 19:02 | 55.62465 | 12.66210 | 29 ft | 8 kts | 196° |
| 2026-05-04 19:02 | 55.62417 | 12.66148 | 29 ft | 9 kts | 220° |
| 2026-05-04 19:02 | 55.62368 | 12.66074 | 29 ft | 9 kts | 221° |
| 2026-05-04 19:02 | 55.62321 | 12.65991 | 28 ft | 10 kts | 233° |
| 2026-05-04 19:03 | 55.62302 | 12.65855 | 29 ft | 13 kts | 267° |
| 2026-05-04 19:03 | 55.62301 | 12.65701 | 29 ft | 13 kts | 269° |
| 2026-05-04 19:03 | 55.62297 | 12.65546 | 29 ft | 13 kts | 269° |
| 2026-05-04 19:03 | 55.62296 | 12.65390 | 29 ft | 13 kts | 269° |
| 2026-05-04 19:04 | 55.62294 | 12.65236 | 29 ft | 13 kts | 266° |
| 2026-05-04 19:04 | 55.62281 | 12.65099 | 29 ft | 11 kts | 276° |
| 2026-05-04 19:04 | 55.62313 | 12.64982 | 29 ft | 11 kts | 303° |
| 2026-05-04 19:04 | 55.62350 | 12.64866 | 29 ft | 11 kts | 285° |
| 2026-05-04 19:05 | 55.62345 | 12.64785 | 29 ft | 5 kts | 251° |
| 2026-05-04 19:05 | 55.62337 | 12.64751 | 29 ft | 0 kts | 247° |
| 2026-05-04 19:05 | 55.62337 | 12.64749 | 29 ft | 1 kts | 247° |
| 2026-05-04 19:05 | 55.62325 | 12.64701 | 29 ft | 8 kts | 246° |
| 2026-05-04 19:06 | 55.62299 | 12.64594 | 28 ft | 10 kts | 246° |
| 2026-05-04 19:06 | 55.62270 | 12.64475 | 28 ft | 11 kts | 246° |
| 2026-05-04 19:06 | 55.62225 | 12.64360 | 26 ft | 12 kts | 202° |
| 2026-05-04 19:06 | 55.62148 | 12.64300 | 28 ft | 12 kts | 205° |
| 2026-05-04 19:07 | 55.62072 | 12.64236 | 29 ft | 12 kts | 205° |
| 2026-05-04 19:07 | 55.61997 | 12.64173 | 29 ft | 12 kts | 205° |
| 2026-05-04 19:07 | 55.61923 | 12.64112 | 29 ft | 10 kts | 205° |
| 2026-05-04 19:07 | 55.61872 | 12.64078 | 29 ft | 4 kts | 193° |
| 2026-05-04 19:08 | 55.61841 | 12.64074 | 29 ft | 5 kts | 180° |
| 2026-05-04 19:08 | 55.61811 | 12.64076 | 29 ft | 2 kts | 178° |
| 2026-05-04 19:08 | 55.61795 | 12.64077 | 29 ft | 3 kts | 178° |
| 2026-05-04 19:08 | 55.61783 | 12.64078 | 29 ft | 0 kts | 177° |
| 2026-05-04 19:10 | 55.61754 | 12.64081 | 29 ft | 10 kts | 177° |
| 2026-05-04 19:10 | 55.61676 | 12.64089 | 31 ft | 9 kts | 176° |
| 2026-05-04 19:11 | 55.61617 | 12.64053 | 32 ft | 9 kts | 217° |
| 2026-05-04 19:11 | 55.61559 | 12.63967 | 30 ft | 18 kts | 221° |
| 2026-05-04 19:11 | 55.61338 | 12.63624 | 31 ft | 79 kts | 221° |
| 2026-05-04 19:11 | 55.60710 | 12.62652 | 31 ft | 156 kts | 221° |
| 2026-05-04 19:12 | 55.59803 | 12.61257 | 459 ft | 178 kts | 223° |
| 2026-05-04 19:12 | 55.57907 | 12.58360 | 2173 ft | 189 kts | 224° |
| 2026-05-04 19:12 | 55.56838 | 12.56705 | 2478 ft | 219 kts | 224° |
| 2026-05-04 19:13 | 55.55561 | 12.54967 | 2870 ft | 246 kts | 218° |
| 2026-05-04 19:13 | 55.54128 | 12.53217 | 3716 ft | 255 kts | 217° |
| 2026-05-04 19:13 | 55.52639 | 12.51423 | 4732 ft | 257 kts | 217° |
| 2026-05-04 19:13 | 55.51172 | 12.49657 | 5777 ft | 257 kts | 218° |
| 2026-05-04 19:14 | 55.49675 | 12.47848 | 6762 ft | 260 kts | 218° |
| 2026-05-04 19:14 | 55.48183 | 12.46037 | 7647 ft | 263 kts | 218° |
| 2026-05-04 19:14 | 55.46673 | 12.44203 | 8568 ft | 267 kts | 218° |
| 2026-05-04 19:14 | 55.45134 | 12.42330 | 9500 ft | 270 kts | 218° |
| 2026-05-04 19:15 | 55.43564 | 12.40419 | 10339 ft | 276 kts | 218° |
| 2026-05-04 19:15 | 55.41926 | 12.38417 | 10718 ft | 301 kts | 218° |
| 2026-05-04 19:15 | 55.40134 | 12.36227 | 10947 ft | 330 kts | 218° |
| 2026-05-04 19:15 | 55.38193 | 12.33865 | 11590 ft | 345 kts | 218° |
| 2026-05-04 19:16 | 55.36192 | 12.31441 | 12601 ft | 351 kts | 218° |
| 2026-05-04 19:16 | 55.34164 | 12.28988 | 13769 ft | 355 kts | 218° |
| 2026-05-04 19:16 | 55.32114 | 12.26509 | 14809 ft | 359 kts | 218° |
| 2026-05-04 19:16 | 55.30026 | 12.23984 | 15783 ft | 365 kts | 218° |
| 2026-05-04 19:17 | 55.27927 | 12.21446 | 16752 ft | 371 kts | 218° |
| 2026-05-04 19:17 | 55.25791 | 12.18868 | 17748 ft | 377 kts | 218° |
| 2026-05-04 19:17 | 55.23598 | 12.16223 | 18602 ft | 382 kts | 218° |
| 2026-05-04 19:17 | 55.21401 | 12.13582 | 18978 ft | 387 kts | 218° |
| 2026-05-04 19:18 | 55.19174 | 12.10876 | 19450 ft | 391 kts | 218° |
| 2026-05-04 19:18 | 55.16980 | 12.08095 | 20613 ft | 385 kts | 219° |
| 2026-05-04 19:18 | 55.14817 | 12.05310 | 21570 ft | 382 kts | 219° |
| 2026-05-04 19:18 | 55.12697 | 12.02572 | 21986 ft | 383 kts | 220° |
| 2026-05-04 19:19 | 55.10537 | 11.99789 | 21957 ft | 382 kts | 219° |
| 2026-05-04 19:19 | 55.08401 | 11.97049 | 21959 ft | 378 kts | 219° |
| 2026-05-04 19:19 | 55.06290 | 11.94351 | 21956 ft | 376 kts | 219° |
| 2026-05-04 19:19 | 55.04179 | 11.91660 | 21966 ft | 376 kts | 219° |
| 2026-05-04 19:20 | 55.02080 | 11.88989 | 21967 ft | 377 kts | 219° |
| 2026-05-04 19:20 | 54.99952 | 11.86285 | 21962 ft | 378 kts | 219° |
| 2026-05-04 19:20 | 54.97812 | 11.83572 | 21965 ft | 378 kts | 219° |
| 2026-05-04 19:20 | 54.95690 | 11.80885 | 21959 ft | 378 kts | 219° |
| 2026-05-04 19:21 | 54.93570 | 11.78204 | 21961 ft | 378 kts | 220° |
| 2026-05-04 19:21 | 54.91447 | 11.75523 | 21966 ft | 378 kts | 220° |
| 2026-05-04 19:21 | 54.89313 | 11.72831 | 21963 ft | 377 kts | 220° |
| 2026-05-04 19:21 | 54.87199 | 11.70167 | 21965 ft | 377 kts | 220° |
| 2026-05-04 19:22 | 54.85064 | 11.67479 | 21959 ft | 376 kts | 220° |
| 2026-05-04 19:22 | 54.82950 | 11.64824 | 21963 ft | 375 kts | 220° |
| 2026-05-04 19:22 | 54.81531 | 11.63045 | 21969 ft | 375 kts | 220° |
| 2026-05-04 19:22 | 54.79400 | 11.60378 | 21967 ft | 375 kts | 220° |
| 2026-05-04 19:23 | 54.77317 | 11.57784 | 21964 ft | 374 kts | 220° |
| 2026-05-04 19:23 | 54.75198 | 11.55149 | 21968 ft | 374 kts | 220° |
| 2026-05-04 19:23 | 54.73090 | 11.52531 | 21968 ft | 373 kts | 220° |
| 2026-05-04 19:23 | 54.70976 | 11.49907 | 21971 ft | 373 kts | 220° |
| 2026-05-04 19:24 | 54.68866 | 11.47290 | 21972 ft | 373 kts | 220° |
| 2026-05-04 19:24 | 54.66746 | 11.44664 | 21974 ft | 372 kts | 220° |
| 2026-05-04 19:24 | 54.64645 | 11.42065 | 21975 ft | 372 kts | 220° |
| 2026-05-04 19:24 | 54.62558 | 11.39486 | 21871 ft | 370 kts | 220° |
| 2026-05-04 19:25 | 54.60460 | 11.36896 | 21419 ft | 368 kts | 220° |
| 2026-05-04 19:25 | 54.58379 | 11.34331 | 20882 ft | 366 kts | 220° |
| 2026-05-04 19:25 | 54.56313 | 11.31788 | 20312 ft | 366 kts | 219° |
| 2026-05-04 19:25 | 54.54243 | 11.29249 | 19778 ft | 365 kts | 219° |
| 2026-05-04 19:26 | 54.52170 | 11.26713 | 19263 ft | 363 kts | 219° |
| 2026-05-04 19:26 | 54.50111 | 11.24197 | 18778 ft | 361 kts | 219° |
| 2026-05-04 19:26 | 54.48072 | 11.21704 | 18281 ft | 359 kts | 218° |
| 2026-05-04 19:26 | 54.46054 | 11.19242 | 17742 ft | 357 kts | 218° |
| 2026-05-04 19:27 | 54.44023 | 11.16770 | 17230 ft | 355 kts | 218° |
| 2026-05-04 19:27 | 54.42002 | 11.14313 | 16747 ft | 352 kts | 218° |
| 2026-05-04 19:27 | 54.40015 | 11.11900 | 16269 ft | 350 kts | 218° |
| 2026-05-04 19:27 | 54.38047 | 11.09511 | 15788 ft | 347 kts | 218° |
| 2026-05-04 19:28 | 54.36080 | 11.07125 | 15299 ft | 346 kts | 218° |
| 2026-05-04 19:28 | 54.34109 | 11.04739 | 14842 ft | 344 kts | 218° |
| 2026-05-04 19:28 | 54.32174 | 11.02353 | 14355 ft | 341 kts | 221° |
| 2026-05-04 19:28 | 54.30427 | 10.99673 | 13890 ft | 338 kts | 227° |
| 2026-05-04 19:29 | 54.28851 | 10.96712 | 13394 ft | 335 kts | 233° |
| 2026-05-04 19:29 | 54.27416 | 10.93560 | 12907 ft | 332 kts | 234° |
| 2026-05-04 19:29 | 54.26027 | 10.90457 | 12454 ft | 330 kts | 234° |
| 2026-05-04 19:29 | 54.24612 | 10.87384 | 12006 ft | 328 kts | 230° |
| 2026-05-04 19:30 | 54.22960 | 10.84666 | 11654 ft | 324 kts | 223° |
| 2026-05-04 19:30 | 54.21242 | 10.82424 | 11581 ft | 312 kts | 218° |
| 2026-05-04 19:30 | 54.19472 | 10.80337 | 11481 ft | 300 kts | 217° |
| 2026-05-04 19:30 | 54.17769 | 10.78371 | 11379 ft | 290 kts | 217° |
| 2026-05-04 19:31 | 54.16131 | 10.76482 | 11234 ft | 281 kts | 217° |
| 2026-05-04 19:31 | 54.14519 | 10.74622 | 10998 ft | 276 kts | 217° |
| 2026-05-04 19:31 | 54.12941 | 10.72794 | 10669 ft | 275 kts | 217° |
| 2026-05-04 19:31 | 54.11364 | 10.70967 | 10336 ft | 274 kts | 217° |
| 2026-05-04 19:32 | 54.09784 | 10.69135 | 10026 ft | 273 kts | 217° |
| 2026-05-04 19:32 | 54.08222 | 10.67323 | 9717 ft | 271 kts | 217° |
| 2026-05-04 19:32 | 54.06677 | 10.65534 | 9371 ft | 270 kts | 217° |
| 2026-05-04 19:32 | 54.05128 | 10.63740 | 9035 ft | 269 kts | 217° |
| 2026-05-04 19:33 | 54.03586 | 10.61954 | 8707 ft | 268 kts | 217° |
| 2026-05-04 19:33 | 54.02054 | 10.60183 | 8467 ft | 263 kts | 217° |
| 2026-05-04 19:33 | 54.00589 | 10.58495 | 8301 ft | 245 kts | 217° |
| 2026-05-04 19:33 | 53.99207 | 10.56902 | 8036 ft | 235 kts | 218° |
| 2026-05-04 19:34 | 53.97863 | 10.55351 | 7676 ft | 230 kts | 218° |
| 2026-05-04 19:34 | 53.96560 | 10.53846 | 7224 ft | 228 kts | 218° |
| 2026-05-04 19:34 | 53.95243 | 10.52329 | 6836 ft | 224 kts | 218° |
| 2026-05-04 19:34 | 53.93974 | 10.50868 | 6645 ft | 219 kts | 218° |
| 2026-05-04 19:35 | 53.92689 | 10.49386 | 6475 ft | 227 kts | 218° |
| 2026-05-04 19:35 | 53.91363 | 10.47859 | 6299 ft | 231 kts | 218° |
| 2026-05-04 19:35 | 53.90048 | 10.46348 | 6088 ft | 230 kts | 217° |
| 2026-05-04 19:35 | 53.88710 | 10.44814 | 5873 ft | 229 kts | 217° |
| 2026-05-04 19:36 | 53.87404 | 10.43315 | 5667 ft | 228 kts | 217° |
| 2026-05-04 19:36 | 53.86086 | 10.41804 | 5454 ft | 227 kts | 217° |
| 2026-05-04 19:36 | 53.84770 | 10.40298 | 5248 ft | 226 kts | 217° |
| 2026-05-04 19:36 | 53.83470 | 10.38811 | 5045 ft | 226 kts | 217° |
| 2026-05-04 19:37 | 53.82187 | 10.37331 | 4848 ft | 223 kts | 220° |
| 2026-05-04 19:37 | 53.81061 | 10.35521 | 4635 ft | 220 kts | 231° |
| 2026-05-04 19:37 | 53.80083 | 10.33554 | 4465 ft | 216 kts | 233° |
| 2026-05-04 19:37 | 53.79152 | 10.31633 | 4298 ft | 210 kts | 232° |
| 2026-05-04 19:38 | 53.78242 | 10.29764 | 4168 ft | 200 kts | 232° |
| 2026-05-04 19:38 | 53.77382 | 10.28004 | 4067 ft | 187 kts | 232° |
| 2026-05-04 19:38 | 53.76575 | 10.26354 | 4016 ft | 185 kts | 232° |
| 2026-05-04 19:38 | 53.75737 | 10.24641 | 3783 ft | 189 kts | 232° |
| 2026-05-04 19:39 | 53.74904 | 10.22942 | 3536 ft | 186 kts | 232° |
| 2026-05-04 19:39 | 53.74090 | 10.21284 | 3284 ft | 182 kts | 232° |
| 2026-05-04 19:39 | 53.73288 | 10.19649 | 3046 ft | 178 kts | 232° |
| 2026-05-04 19:39 | 53.72517 | 10.18079 | 2834 ft | 171 kts | 232° |
| 2026-05-04 19:40 | 53.71745 | 10.16506 | 2591 ft | 174 kts | 232° |
| 2026-05-04 19:40 | 53.70976 | 10.14946 | 2378 ft | 173 kts | 232° |
| 2026-05-04 19:40 | 53.70208 | 10.13379 | 2125 ft | 172 kts | 232° |
| 2026-05-04 19:40 | 53.69452 | 10.11839 | 1895 ft | 172 kts | 232° |
| 2026-05-04 19:41 | 53.68681 | 10.10272 | 1678 ft | 173 kts | 232° |
| 2026-05-04 19:41 | 53.67940 | 10.08768 | 1414 ft | 160 kts | 232° |
| 2026-05-04 19:41 | 53.67262 | 10.07408 | 1186 ft | 144 kts | 232° |
| 2026-05-04 19:41 | 53.66617 | 10.06099 | 1031 ft | 147 kts | 233° |
| 2026-05-04 19:42 | 53.65968 | 10.04778 | 841 ft | 147 kts | 232° |
| 2026-05-04 19:42 | 53.65313 | 10.03438 | 642 ft | 148 kts | 233° |
| 2026-05-04 19:42 | 53.64662 | 10.02114 | 407 ft | 147 kts | 233° |
| 2026-05-04 19:42 | 53.64021 | 10.00814 | 231 ft | 142 kts | 233° |
| 2026-05-04 19:43 | 53.63380 | 9.99512 | 50 ft | 140 kts | 231° |
| 2026-05-04 19:43 | 53.62834 | 9.98411 | 46 ft | 103 kts | 231° |
| 2026-05-04 19:43 | 53.62474 | 9.97680 | 45 ft | 58 kts | 230° |
| 2026-05-04 19:43 | 53.62306 | 9.97377 | 44 ft | 22 kts | 205° |
| 2026-05-04 19:44 | 53.62193 | 9.97448 | 50 ft | 18 kts | 123° |
| 2026-05-04 19:44 | 53.62207 | 9.97640 | 46 ft | 18 kts | 49° |
| 2026-05-04 19:44 | 53.62285 | 9.97801 | 48 ft | 18 kts | 50° |
| 2026-05-04 19:44 | 53.62348 | 9.97928 | 47 ft | 13 kts | 52° |
| 2026-05-04 19:45 | 53.62408 | 9.98048 | 47 ft | 13 kts | 48° |
| 2026-05-04 19:45 | 53.62479 | 9.98152 | 46 ft | 13 kts | 39° |
| 2026-05-04 19:45 | 53.62546 | 9.98260 | 48 ft | 13 kts | 48° |
| 2026-05-04 19:45 | 53.62606 | 9.98383 | 45 ft | 13 kts | 50° |
| 2026-05-04 19:46 | 53.62665 | 9.98504 | 45 ft | 13 kts | 50° |
| 2026-05-04 19:46 | 53.62725 | 9.98625 | 47 ft | 13 kts | 50° |
| 2026-05-04 19:46 | 53.62785 | 9.98746 | 46 ft | 13 kts | 51° |
| 2026-05-04 19:46 | 53.62847 | 9.98872 | 48 ft | 15 kts | 51° |
| 2026-05-04 19:47 | 53.62932 | 9.99044 | 46 ft | 22 kts | 50° |
| 2026-05-04 19:47 | 53.63030 | 9.99241 | 48 ft | 22 kts | 51° |
| 2026-05-04 19:47 | 53.63131 | 9.99482 | 49 ft | 30 kts | 53° |
| 2026-05-04 19:47 | 53.63224 | 9.99692 | 47 ft | 16 kts | 73° |
| 2026-05-04 19:48 | 53.63189 | 9.99784 | 47 ft | 9 kts | 148° |
| 2026-05-04 19:48 | 53.63134 | 9.99838 | 50 ft | 10 kts | 153° |
| 2026-05-04 19:48 | 53.63071 | 9.99889 | 47 ft | 10 kts | 153° |
| 2026-05-04 19:48 | 53.63005 | 9.99949 | 50 ft | 11 kts | 152° |
| 2026-05-04 19:49 | 53.62948 | 10.00034 | 47 ft | 11 kts | 110° |
| 2026-05-04 19:49 | 53.62988 | 10.00137 | 47 ft | 12 kts | 34° |
| 2026-05-04 19:49 | 53.63054 | 10.00208 | 46 ft | 8 kts | 27° |
| 2026-05-04 19:49 | 53.63095 | 10.00257 | 47 ft | 8 kts | 66° |
| 2026-05-04 19:50 | 53.63103 | 10.00346 | 50 ft | 5 kts | 84° |
| 2026-05-04 19:50 | 53.63104 | 10.00373 | 51 ft | 1 kts | 87° |
| 2026-05-04 19:50 | 53.63104 | 10.00379 | 51 ft | 0 kts | 87° |